KUIL/UIL METAR and TAF weather

Enter ICAO airport designator
Station Type Date Time Source
KUIL METAR 2019/07/18 11:30 UTC NOAA

KUIL 181130Z AUTO 00000KT 2SM BR FEW023 SCT027 BKN033 10/10 A3001 RMK AO2 T01000100


Station Type Date Time Source
KUIL Decoded METAR 2019/07/18 11:30 UTC NOAA

QUILLAYUTE STATE AIRPORT, WA, United States (KUIL) 47-56N 124-34W 54M
Jul 18, 2019 - 07:30 AM EDT / 2019.07.18 1130 UTC
Wind: Calm:0
Visibility: 2 mile(s):0
Sky conditions: mostly cloudy
Weather: mist
Temperature: 50.0 F (10.0 C)
Dew Point: 50.0 F (10.0 C)
Relative Humidity: 100%
Pressure (altimeter): 30.01 in. Hg (1016 hPa)
ob: KUIL 181130Z AUTO 00000KT 2SM BR FEW023 SCT027 BKN033 10/10 A3001 RMK AO2 T01000100
cycle: 11

Station Type Date Time Source
KUIL TAF UTC NOAA

Error!

Example: see airport list